createdAt,value
2023-07-12T00:00:31.421Z,100732.69
2023-07-12T00:02:59.200Z,100720.53
2023-07-12T00:05:29.872Z,100714.88
2023-07-12T00:07:57.683Z,100709.19
2023-07-12T00:10:26.403Z,100708.41
2023-07-12T00:12:54.723Z,100700.28
2023-07-12T00:15:23.054Z,100730.69
2023-07-12T00:17:53.015Z,100744.03
2023-07-12T00:20:27.101Z,100709.63
2023-07-12T00:22:54.990Z,100731.88
2023-07-12T00:25:23.270Z,100701.13
2023-07-12T00:27:50.789Z,100716.91
2023-07-12T00:30:20.810Z,100702.31
2023-07-12T00:32:53.438Z,100678.44
2023-07-12T00:35:22.887Z,100680.88
2023-07-12T00:37:50.859Z,100681.69
2023-07-12T00:40:33.911Z,100679.69
2023-07-12T00:43:10.605Z,100671.59
2023-07-12T00:45:37.711Z,100657.41
2023-07-12T00:48:11.949Z,100663.09
2023-07-12T00:50:39.535Z,100672.00
2023-07-12T00:53:10.198Z,100651.75
2023-07-12T00:55:58.553Z,100651.38
2023-07-12T00:58:27.568Z,100650.13
2023-07-12T01:00:58.158Z,100669.56
2023-07-12T01:03:30.223Z,100669.97
2023-07-12T01:05:57.380Z,100648.91
2023-07-12T01:08:24.660Z,100660.66
2023-07-12T01:10:52.264Z,100671.16
2023-07-12T01:13:22.827Z,100670.78
2023-07-12T01:15:50.041Z,100662.66
2023-07-12T01:18:17.014Z,100663.06
2023-07-12T01:20:46.903Z,100679.28
2023-07-12T01:23:15.557Z,100686.53
2023-07-12T01:25:44.398Z,100684.06
2023-07-12T01:28:11.449Z,100684.91
2023-07-12T01:30:39.379Z,100678.44
2023-07-12T01:33:06.727Z,100675.59
2023-07-12T01:35:33.870Z,100680.09
2023-07-12T01:38:00.731Z,100695.44
2023-07-12T01:40:28.973Z,100694.22
2023-07-12T01:42:55.858Z,100676.03
2023-07-12T01:45:22.842Z,100678.88
2023-07-12T01:47:49.751Z,100674.84
2023-07-12T01:50:16.784Z,100668.75
2023-07-12T01:52:43.597Z,100679.66
2023-07-12T01:55:10.468Z,100678.44
2023-07-12T01:57:39.263Z,100676.34
2023-07-12T02:00:07.540Z,100674.34
2023-07-12T02:02:34.430Z,100674.00
2023-07-12T02:05:01.435Z,100683.31
2023-07-12T02:07:28.236Z,100681.59
2023-07-12T02:10:10.401Z,100678.03
2023-07-12T02:12:38.631Z,100689.34
2023-07-12T02:15:06.551Z,100684.50
2023-07-12T02:17:33.657Z,100690.50
2023-07-12T02:20:00.742Z,100690.03
2023-07-12T02:22:30.650Z,100686.50
2023-07-12T02:24:57.684Z,100684.50
2023-07-12T02:27:25.069Z,100680.06
2023-07-12T02:29:53.616Z,100673.59
2023-07-12T02:32:24.385Z,100685.75
2023-07-12T02:34:51.304Z,100674.81
2023-07-12T02:37:18.190Z,100668.75
2023-07-12T02:39:45.203Z,100676.03
2023-07-12T02:42:12.462Z,100684.13
2023-07-12T02:44:40.663Z,100684.94
2023-07-12T02:47:10.936Z,100688.16
2023-07-12T02:49:38.254Z,100686.09
2023-07-12T02:52:05.989Z,100689.75
2023-07-12T02:54:33.519Z,100691.81
2023-07-12T02:57:01.222Z,100694.63
2023-07-12T02:59:28.157Z,100690.19
2023-07-12T03:01:55.503Z,100689.78
2023-07-12T03:04:23.902Z,100697.88
2023-07-12T03:06:50.924Z,100703.13
2023-07-12T03:09:18.119Z,100697.44
2023-07-12T03:11:47.107Z,100693.03
2023-07-12T03:14:15.781Z,100689.78
2023-07-12T03:16:42.846Z,100695.88
2023-07-12T03:19:09.718Z,100687.78
2023-07-12T03:21:38.187Z,100698.28
2023-07-12T03:24:06.169Z,100697.06
2023-07-12T03:26:33.299Z,100693.44
2023-07-12T03:29:00.204Z,100695.44
2023-07-12T03:31:28.849Z,100686.56
2023-07-12T03:33:56.576Z,100695.47
2023-07-12T03:36:27.327Z,100696.25
2023-07-12T03:38:56.410Z,100708.41
2023-07-12T03:41:23.809Z,100705.19
2023-07-12T03:43:50.680Z,100708.81
2023-07-12T03:46:18.177Z,100710.84
2023-07-12T03:48:45.457Z,100706.38
2023-07-12T03:51:13.620Z,100705.59
2023-07-12T03:53:40.985Z,100704.34
2023-07-12T03:56:10.316Z,100707.19
2023-07-12T03:58:39.434Z,100715.31
2023-07-12T04:01:08.235Z,100719.75
2023-07-12T04:03:35.772Z,100723.78
2023-07-12T04:06:04.497Z,100731.06
2023-07-12T04:08:32.163Z,100726.19
2023-07-12T04:10:59.331Z,100728.22
2023-07-12T04:13:28.402Z,100730.63
2023-07-12T04:15:56.819Z,100729.81
2023-07-12T04:18:24.366Z,100728.97
2023-07-12T04:20:51.400Z,100726.56
2023-07-12T04:23:18.499Z,100727.78
2023-07-12T04:25:45.340Z,100725.75
2023-07-12T04:28:12.761Z,100734.63
2023-07-12T04:30:41.003Z,100738.66
2023-07-12T04:33:07.940Z,100747.56
2023-07-12T04:35:38.842Z,100755.25
2023-07-12T04:38:06.045Z,100754.88
2023-07-12T04:40:32.861Z,100762.06
2023-07-12T04:42:59.901Z,100759.34
2023-07-12T04:45:26.889Z,100761.41
2023-07-12T04:47:55.209Z,100755.34
2023-07-12T04:50:22.168Z,100765.06
2023-07-12T04:52:49.170Z,100750.50
2023-07-12T04:55:27.413Z,100752.97
2023-07-12T04:57:55.544Z,100749.69
2023-07-12T05:00:24.854Z,100748.91
2023-07-12T05:02:52.283Z,100750.50
2023-07-12T05:05:21.317Z,100747.25
2023-07-12T05:07:49.691Z,100751.31
2023-07-12T05:10:17.635Z,100745.56
2023-07-12T05:12:45.182Z,100763.00
2023-07-12T05:15:12.922Z,100758.53
2023-07-12T05:17:40.673Z,100756.06
2023-07-12T05:20:12.038Z,100758.44
2023-07-12T05:22:40.505Z,100761.31
2023-07-12T05:25:08.374Z,100758.47
2023-07-12T05:27:35.253Z,100760.16
2023-07-12T05:30:02.267Z,100763.38
2023-07-12T05:32:29.283Z,100770.63
2023-07-12T05:34:56.148Z,100766.94
2023-07-12T05:37:25.811Z,100772.91
2023-07-12T05:39:56.304Z,100777.94
2023-07-12T05:42:23.203Z,100779.50
2023-07-12T05:44:50.074Z,100772.25
2023-07-12T05:47:17.436Z,100774.66
2023-07-12T05:49:44.280Z,100777.38
2023-07-12T05:52:11.119Z,100783.44
2023-07-12T05:54:38.137Z,100788.75
2023-07-12T05:57:07.041Z,100796.84
2023-07-12T05:59:34.014Z,100791.28
2023-07-12T06:02:00.896Z,100789.28
2023-07-12T06:04:27.773Z,100799.81
2023-07-12T06:06:54.662Z,100798.28
2023-07-12T06:09:21.487Z,100805.19
2023-07-12T06:11:48.477Z,100815.34
2023-07-12T06:14:16.697Z,100807.66
2023-07-12T06:16:45.762Z,100806.50
2023-07-12T06:19:12.712Z,100812.03
2023-07-12T06:21:39.748Z,100814.84
2023-07-12T06:24:06.949Z,100812.47
2023-07-12T06:26:34.009Z,100817.34
2023-07-12T06:29:01.226Z,100814.06
2023-07-12T06:31:29.970Z,100819.38
2023-07-12T06:34:00.704Z,100824.00
2023-07-12T06:36:27.784Z,100824.97
2023-07-12T06:38:54.915Z,100835.94
2023-07-12T06:41:21.848Z,100837.16
2023-07-12T06:43:48.849Z,100839.78
2023-07-12T06:46:16.257Z,100843.56
2023-07-12T06:48:44.528Z,100846.94
2023-07-12T06:51:11.510Z,100845.97
2023-07-12T06:53:38.605Z,100855.44
2023-07-12T06:56:05.795Z,100861.41
2023-07-12T06:58:32.713Z,100851.41
2023-07-12T07:00:59.631Z,100852.75
2023-07-12T07:03:27.257Z,100863.56
2023-07-12T07:05:57.961Z,100865.56
2023-07-12T07:08:26.443Z,100858.91
2023-07-12T07:10:54.148Z,100869.03
2023-07-12T07:13:23.415Z,100868.44
2023-07-12T07:15:50.770Z,100872.81
2023-07-12T07:18:18.147Z,100870.75
2023-07-12T07:20:46.290Z,100867.88
2023-07-12T07:23:15.293Z,100884.06
2023-07-12T07:25:43.929Z,100875.00
2023-07-12T07:28:11.009Z,100886.88
2023-07-12T07:30:38.592Z,100888.13
2023-07-12T07:33:05.836Z,100889.16
2023-07-12T07:35:32.829Z,100882.72
2023-07-12T07:37:59.769Z,100885.06
2023-07-12T07:40:28.041Z,100898.13
2023-07-12T07:42:55.698Z,100902.66
2023-07-12T07:45:23.110Z,100900.41
2023-07-12T07:47:50.245Z,100899.09
2023-07-12T07:50:17.296Z,100897.53
2023-07-12T07:52:44.317Z,100915.13
2023-07-12T07:55:11.233Z,100922.13
2023-07-12T07:57:39.429Z,100914.63
2023-07-12T08:00:11.593Z,100920.28
2023-07-12T08:02:39.287Z,100928.31
2023-07-12T08:05:07.125Z,100931.75
2023-07-12T08:07:38.981Z,100926.00
2023-07-12T08:10:07.386Z,100923.50
2023-07-12T08:12:34.475Z,100929.47
2023-07-12T08:15:03.016Z,100926.63
2023-07-12T08:17:31.316Z,100934.22
2023-07-12T08:19:58.331Z,100941.47
2023-07-12T08:22:26.377Z,100935.06
2023-07-12T08:24:53.356Z,100938.47
2023-07-12T08:27:20.224Z,100935.78
2023-07-12T08:29:47.025Z,100942.91
2023-07-12T08:32:15.519Z,100945.38
2023-07-12T08:34:42.315Z,100955.91
2023-07-12T08:37:09.094Z,100958.38
2023-07-12T08:39:35.943Z,100952.47
2023-07-12T08:42:11.113Z,100964.94
2023-07-12T08:44:38.367Z,100965.72
2023-07-12T08:47:06.297Z,100969.94
2023-07-12T08:49:34.499Z,100957.72
2023-07-12T08:52:06.736Z,100968.97
2023-07-12T08:54:36.980Z,100967.03
2023-07-12T08:57:19.647Z,100964.81
2023-07-12T08:59:54.551Z,100972.72
2023-07-12T09:02:23.955Z,100973.72
2023-07-12T09:04:57.474Z,100972.13
2023-07-12T09:07:28.676Z,100976.72
2023-07-12T09:09:56.895Z,100974.31
2023-07-12T09:12:26.201Z,100983.34
2023-07-12T09:14:54.427Z,100960.88
2023-07-12T09:17:24.528Z,100968.03
2023-07-12T09:19:52.801Z,100979.56
2023-07-12T09:22:20.087Z,100972.38
2023-07-12T09:24:52.486Z,100966.44
2023-07-12T09:27:22.113Z,100966.88
2023-07-12T09:29:49.710Z,100968.44
2023-07-12T09:32:19.921Z,100974.84
2023-07-12T09:34:48.912Z,100978.84
2023-07-12T09:37:19.538Z,100977.41
2023-07-12T09:39:54.628Z,100994.13
2023-07-12T09:42:21.555Z,100979.44
2023-07-12T09:44:49.518Z,100979.59
2023-07-12T09:47:35.322Z,100974.31
2023-07-12T09:50:13.074Z,100972.53
2023-07-12T09:52:52.541Z,100980.34
2023-07-12T09:55:24.908Z,100984.84
2023-07-12T09:58:03.757Z,100978.41
2023-07-12T10:00:34.888Z,100986.22
2023-07-12T10:03:14.802Z,100978.41
2023-07-12T10:05:45.296Z,100975.34
2023-07-12T10:08:16.136Z,100979.25
2023-07-12T10:10:50.155Z,100982.56
2023-07-12T10:13:30.766Z,100983.03
2023-07-12T10:15:59.526Z,100977.78
2023-07-12T10:18:29.830Z,100985.75
2023-07-12T10:20:58.130Z,100985.81
2023-07-12T10:23:31.510Z,100994.88
2023-07-12T10:26:00.676Z,100987.53
2023-07-12T10:28:41.828Z,100991.69
2023-07-12T10:31:18.547Z,100994.00
2023-07-12T10:33:48.680Z,100993.16
2023-07-12T10:36:20.446Z,100993.38
2023-07-12T10:38:49.840Z,100981.06
2023-07-12T10:41:24.296Z,100994.47
2023-07-12T10:43:57.979Z,100993.16
2023-07-12T10:46:34.556Z,100997.44
2023-07-12T10:49:05.059Z,101003.03
2023-07-12T10:51:36.825Z,100994.69
2023-07-12T10:54:06.620Z,100998.59
2023-07-12T10:56:39.149Z,100995.28
2023-07-12T10:59:40.870Z,100984.97
2023-07-12T11:02:21.569Z,100992.31
2023-07-12T11:04:49.922Z,100990.31
2023-07-12T11:07:34.947Z,100995.78
2023-07-12T11:10:17.432Z,100988.72
2023-07-12T11:12:51.138Z,100996.41
2023-07-12T11:15:23.108Z,100998.19
2023-07-12T11:17:59.202Z,100991.63
2023-07-12T11:20:27.970Z,100999.88
2023-07-12T11:23:24.340Z,100999.84
2023-07-12T11:25:59.536Z,101002.78
2023-07-12T11:28:40.107Z,100997.91
2023-07-12T11:31:17.760Z,100998.56
2023-07-12T11:33:50.072Z,100995.28
2023-07-12T11:36:21.582Z,100995.44
2023-07-12T11:38:50.385Z,100992.78
2023-07-12T11:41:22.813Z,100985.25
2023-07-12T11:43:59.200Z,100990.38
2023-07-12T11:46:30.062Z,100997.91
2023-07-12T11:49:05.500Z,100998.97
2023-07-12T11:51:37.738Z,100999.09
2023-07-12T11:54:18.404Z,100984.72
2023-07-12T11:56:48.595Z,100990.63
2023-07-12T11:59:16.703Z,100981.91
2023-07-12T12:01:44.275Z,100991.03
2023-07-12T12:04:19.549Z,100989.09
2023-07-12T12:06:46.618Z,100986.63
2023-07-12T12:09:13.490Z,100988.66
2023-07-12T12:11:40.918Z,100983.34
2023-07-12T12:14:19.826Z,100991.22
2023-07-12T12:16:52.367Z,100991.44
2023-07-12T12:19:19.874Z,101000.34
2023-07-12T12:21:48.597Z,101003.31
2023-07-12T12:24:18.460Z,101001.97
2023-07-12T12:26:46.960Z,100998.88
2023-07-12T12:29:18.402Z,101001.31
2023-07-12T12:31:53.221Z,100995.25
2023-07-12T12:34:20.238Z,101005.41
2023-07-12T12:36:57.964Z,101010.81
2023-07-12T12:39:25.059Z,101008.72
2023-07-12T12:41:54.229Z,101004.22
2023-07-12T12:44:23.383Z,100998.78
2023-07-12T12:54:27.212Z,101006.31
2023-07-12T13:17:53.600Z,101005.53
2023-07-12T13:19:50.780Z,101018.44
2023-07-12T13:22:20.124Z,101013.50
2023-07-12T13:24:47.219Z,101009.94
2023-07-12T13:27:28.458Z,101025.47
2023-07-12T13:29:57.038Z,101022.28
2023-07-12T13:32:24.390Z,101025.34
2023-07-12T13:37:29.485Z,101028.38
2023-07-12T13:39:58.141Z,101032.88
2023-07-12T13:47:30.332Z,101021.91
2023-07-12T13:49:57.525Z,101024.03
2023-07-12T13:52:25.973Z,101033.53
2023-07-12T13:54:53.036Z,101043.72
2023-07-12T13:57:25.198Z,101038.28
2023-07-12T13:59:52.388Z,101029.41
2023-07-12T14:05:43.211Z,101047.84
2023-07-12T14:08:22.759Z,101043.09
2023-07-12T14:10:30.567Z,101045.47
2023-07-12T14:12:57.512Z,101051.75
2023-07-12T14:15:26.249Z,101051.41
2023-07-12T14:17:55.806Z,101058.97
2023-07-12T14:20:24.876Z,101062.41
2023-07-12T14:22:51.909Z,101064.41
2023-07-12T14:25:20.570Z,101051.56
2023-07-12T14:27:48.028Z,101060.59
2023-07-12T14:32:47.182Z,101057.56
2023-07-12T14:35:18.210Z,101057.38
2023-07-12T14:37:45.887Z,101051.06
2023-07-12T14:40:14.069Z,101062.81
2023-07-12T14:42:40.929Z,101061.88
2023-07-12T14:45:14.750Z,101051.34
2023-07-12T14:47:41.971Z,101063.88
2023-07-12T14:50:11.274Z,101065.66
2023-07-12T14:52:40.513Z,101060.53
2023-07-12T14:55:16.382Z,101064.97
2023-07-12T15:00:16.911Z,101058.69
2023-07-12T15:02:48.643Z,101060.25
2023-07-12T15:05:15.567Z,101056.50
2023-07-12T15:07:45.146Z,101054.16
2023-07-12T15:10:17.470Z,101068.00
2023-07-12T15:12:47.117Z,101073.66
2023-07-12T15:15:18.734Z,101064.06
2023-07-12T15:17:49.392Z,101068.25
2023-07-12T15:20:19.561Z,101065.69
2023-07-12T15:22:48.126Z,101066.41
2023-07-12T15:25:16.965Z,101073.03
2023-07-12T15:27:43.814Z,101071.75
2023-07-12T15:30:14.035Z,101066.53
2023-07-12T15:32:41.193Z,101074.38
2023-07-12T15:35:23.735Z,101073.56
2023-07-12T15:37:53.613Z,101067.69
2023-07-12T15:40:20.999Z,101073.31
2023-07-12T15:42:48.012Z,101065.34
2023-07-12T15:45:16.125Z,101069.06
2023-07-12T15:47:43.676Z,101067.53
2023-07-12T15:50:15.757Z,101066.06
2023-07-12T15:52:44.595Z,101064.06
2023-07-12T15:55:17.769Z,101066.66
2023-07-12T15:57:44.828Z,101069.81
2023-07-12T16:00:19.438Z,101070.38
2023-07-12T16:02:47.071Z,101072.28
2023-07-12T16:05:15.809Z,101067.31
2023-07-12T16:07:44.081Z,101073.03
2023-07-12T16:10:13.656Z,101070.50
2023-07-12T16:12:42.864Z,101072.56
2023-07-12T16:15:19.717Z,101080.81
2023-07-12T16:17:46.740Z,101084.63
2023-07-12T16:20:13.934Z,101072.13
2023-07-12T16:22:42.326Z,101079.06
2023-07-12T16:25:15.546Z,101079.59
2023-07-12T16:27:45.669Z,101069.84
2023-07-12T16:30:16.310Z,101084.91
2023-07-12T16:32:43.729Z,101075.78
2023-07-12T16:35:16.094Z,101074.94
2023-07-12T16:37:43.574Z,101079.44
2023-07-12T16:40:14.625Z,101084.00
2023-07-12T16:42:44.699Z,101083.53
2023-07-12T16:45:26.246Z,101080.59
2023-07-12T16:47:54.912Z,101073.84
2023-07-12T16:50:22.029Z,101075.31
2023-07-12T16:52:48.859Z,101071.69
2023-07-12T16:55:20.193Z,101070.06
2023-07-12T16:57:47.567Z,101061.72
2023-07-12T17:00:15.288Z,101073.75
2023-07-12T17:02:43.703Z,101074.84
2023-07-12T17:05:15.882Z,101071.63
2023-07-12T17:07:42.819Z,101069.69
2023-07-12T17:10:10.060Z,101073.66
2023-07-12T17:12:37.225Z,101084.72
2023-07-12T17:15:04.457Z,101076.69
2023-07-12T17:17:31.390Z,101090.00
2023-07-12T17:19:59.735Z,101081.47
2023-07-12T17:22:26.942Z,101070.97
2023-07-12T17:24:53.765Z,101089.38
2023-07-12T17:27:23.649Z,101089.25
2023-07-12T17:29:51.991Z,101091.72
2023-07-12T17:32:26.392Z,101094.31
2023-07-12T17:34:53.213Z,101088.72
2023-07-12T17:37:21.561Z,101093.72
2023-07-12T17:39:58.781Z,101087.78
2023-07-12T17:42:30.011Z,101091.66
2023-07-12T17:44:57.738Z,101084.44
2023-07-12T17:47:25.407Z,101085.03
2023-07-12T17:49:52.573Z,101087.56
2023-07-12T17:52:22.487Z,101096.50
2023-07-12T17:54:49.772Z,101084.47
2023-07-12T17:57:16.588Z,101089.03
2023-07-12T17:59:45.167Z,101080.50
2023-07-12T18:02:17.533Z,101090.25
2023-07-12T18:04:45.504Z,101094.84
2023-07-12T18:07:24.620Z,101084.13
2023-07-12T18:09:53.085Z,101090.41
2023-07-12T18:12:22.676Z,101096.16
2023-07-12T18:14:51.299Z,101093.16
2023-07-12T18:17:20.077Z,101092.38
2023-07-12T18:19:47.681Z,101090.38
2023-07-12T18:22:17.540Z,101098.34
2023-07-12T18:24:48.274Z,101101.66
2023-07-12T18:27:17.287Z,101094.25
2023-07-12T18:29:45.199Z,101104.41
2023-07-12T18:32:17.648Z,101105.38
2023-07-12T18:34:45.504Z,101100.59
2023-07-12T18:37:14.266Z,101103.97
2023-07-12T18:39:43.113Z,101105.53
2023-07-12T18:42:17.818Z,101106.38
2023-07-12T18:44:44.995Z,101098.72
2023-07-12T18:47:11.940Z,101107.63
2023-07-12T18:49:38.821Z,101106.75
2023-07-12T18:52:12.297Z,101100.00
2023-07-12T18:54:39.170Z,101100.84
2023-07-12T18:57:09.976Z,101097.50
2023-07-12T18:59:38.755Z,101103.72
2023-07-12T19:02:13.148Z,101097.59
2023-07-12T19:04:41.544Z,101091.59
2023-07-12T19:07:15.759Z,101089.00
2023-07-12T19:09:42.730Z,101100.44
2023-07-12T19:12:11.866Z,101096.03
2023-07-12T19:14:40.463Z,101093.97
2023-07-12T19:17:12.088Z,101094.41
2023-07-12T19:19:39.736Z,101089.88
2023-07-12T19:22:09.488Z,101092.41
2023-07-12T19:24:36.285Z,101098.88
2023-07-12T19:27:13.513Z,101099.34
2023-07-12T19:29:45.212Z,101092.84
2023-07-12T19:32:14.264Z,101101.00
2023-07-12T19:34:43.148Z,101105.53
2023-07-12T19:37:11.639Z,101112.81
2023-07-12T19:39:38.777Z,101114.47
2023-07-12T19:42:07.615Z,101110.00
2023-07-12T19:44:35.132Z,101119.34
2023-07-12T19:47:03.924Z,101118.13
2023-07-12T19:49:31.317Z,101124.22
2023-07-12T19:51:58.372Z,101125.84
2023-07-12T19:54:25.377Z,101125.00
2023-07-12T19:56:53.250Z,101126.66
2023-07-12T19:59:20.075Z,101123.81
2023-07-12T20:01:47.357Z,101120.19
2023-07-12T20:04:15.866Z,101126.66
2023-07-12T20:06:42.748Z,101128.28
2023-07-12T20:09:10.999Z,101124.25
2023-07-12T20:11:38.522Z,101135.19
2023-07-12T20:14:05.545Z,101130.75
2023-07-12T20:16:33.509Z,101142.88
2023-07-12T20:19:00.609Z,101133.16
2023-07-12T20:21:29.574Z,101142.09
2023-07-12T20:23:56.478Z,101141.28
2023-07-12T20:26:23.356Z,101148.56
2023-07-12T20:28:50.926Z,101146.91
2023-07-12T20:31:19.265Z,101140.84
2023-07-12T20:33:46.587Z,101141.63
2023-07-12T20:36:14.930Z,101139.22
2023-07-12T20:38:43.266Z,101136.31
2023-07-12T20:41:10.935Z,101148.06
2023-07-12T20:43:38.713Z,101137.13
2023-07-12T20:46:07.159Z,101144.00
2023-07-12T20:48:36.082Z,101134.28
2023-07-12T20:51:06.285Z,101147.25
2023-07-12T20:53:34.794Z,101144.41
2023-07-12T20:56:03.356Z,101152.50
2023-07-12T20:58:30.765Z,101154.47
2023-07-12T21:01:05.613Z,101148.81
2023-07-12T21:03:32.994Z,101147.63
2023-07-12T21:06:01.110Z,101152.84
2023-07-12T21:08:27.988Z,101150.78
2023-07-12T21:10:56.021Z,101156.50
2023-07-12T21:13:24.629Z,101155.63
2023-07-12T21:15:52.104Z,101160.44
2023-07-12T21:18:19.318Z,101160.47
2023-07-12T21:20:46.116Z,101161.22
2023-07-12T21:23:13.608Z,101159.59
2023-07-12T21:25:42.447Z,101161.25
2023-07-12T21:28:09.533Z,101161.66
2023-07-12T21:30:40.016Z,101162.84
2023-07-12T21:33:06.903Z,101166.13
2023-07-12T21:35:34.105Z,101183.50
2023-07-12T21:38:01.389Z,101161.22
2023-07-12T21:40:28.223Z,101165.13
2023-07-12T21:42:55.127Z,101167.63
2023-07-12T21:45:22.025Z,101167.25
2023-07-12T21:47:50.268Z,101165.88
2023-07-12T21:50:17.342Z,101167.50
2023-07-12T21:52:44.203Z,101166.69
2023-07-12T21:55:11.052Z,101171.91
2023-07-12T21:57:38.009Z,101170.66
2023-07-12T22:00:09.464Z,101172.25
2023-07-12T22:02:36.555Z,101177.59
2023-07-12T22:05:05.539Z,101176.75
2023-07-12T22:07:32.339Z,101172.25
2023-07-12T22:09:59.177Z,101178.75
2023-07-12T22:12:26.039Z,101186.06
2023-07-12T22:14:53.322Z,101168.88
2023-07-12T22:17:20.165Z,101175.44
2023-07-12T22:19:47.933Z,101176.19
2023-07-12T22:22:16.160Z,101172.19
2023-07-12T22:24:43.094Z,101183.81
2023-07-12T22:27:10.768Z,101177.47
2023-07-12T22:29:39.118Z,101188.34
2023-07-12T22:32:07.434Z,101184.59
2023-07-12T22:34:35.171Z,101188.66
2023-07-12T22:37:03.067Z,101197.97
2023-07-12T22:39:31.292Z,101199.41
2023-07-12T22:41:58.199Z,101193.88
2023-07-12T22:44:25.014Z,101190.19
2023-07-12T22:46:53.600Z,101189.81
2023-07-12T22:49:20.803Z,101191.97
2023-07-12T22:51:47.838Z,101182.72
2023-07-12T22:54:15.070Z,101186.28
2023-07-12T22:56:47.646Z,101191.22
2023-07-12T22:59:14.783Z,101190.34
2023-07-12T23:01:41.620Z,101191.22
2023-07-12T23:04:08.522Z,101195.41
2023-07-12T23:06:39.832Z,101194.81
2023-07-12T23:09:07.656Z,101202.84
2023-07-12T23:11:34.624Z,101196.28
2023-07-12T23:14:03.397Z,101191.41
2023-07-12T23:16:32.835Z,101196.28
2023-07-12T23:18:59.686Z,101195.91
2023-07-12T23:21:27.118Z,101199.91
2023-07-12T23:23:54.078Z,101195.81
2023-07-12T23:26:21.750Z,101201.97
2023-07-12T23:28:48.760Z,101195.75
2023-07-12T23:31:17.752Z,101200.31
2023-07-12T23:33:44.724Z,101189.66
2023-07-12T23:36:14.304Z,101191.63
2023-07-12T23:38:42.824Z,101198.81
2023-07-12T23:41:11.053Z,101182.66
2023-07-12T23:43:38.462Z,101183.53
2023-07-12T23:46:05.558Z,101179.53
2023-07-12T23:48:33.829Z,101197.25
2023-07-12T23:51:01.139Z,101192.38
2023-07-12T23:53:28.215Z,101183.03
2023-07-12T23:55:55.265Z,101186.56
2023-07-12T23:58:22.312Z,101182.09
